HKGA 020500Z 20010KT 9999 BKN022 24/19 Q1015
From batch tds/metars/production/2022/10/2/h05_m49_metars.cache.csv.gz
Observed at (about 1 hour ago)
Identifier HKGA
HKGA 020400Z 18006KT 9999 BKN021 23/19 Q1015
From batch tds/metars/production/2022/10/2/h04_m54_metars.cache.csv.gz
Observed at (about 2 hours ago)
Identifier HKGA
HKGA 011800Z 16008KT SKC 28/16 Q1014
From batch tds/metars/production/2022/10/1/h18_m51_metars.cache.csv.gz
Observed at (about 12 hours ago)
Identifier HKGA
HKGA 011700Z 16010KT CAVOK 29/16 Q1013
From batch tds/metars/production/2022/10/1/h17_m58_metars.cache.csv.gz
Observed at (about 13 hours ago)
Identifier HKGA
HKGA 011600Z 18010KT CAVOK 30/16 Q1012
From batch tds/metars/production/2022/10/1/h16_m56_metars.cache.csv.gz
Observed at (about 14 hours ago)
Identifier HKGA
HKGA 011500Z 18012KT 9999 SCT029 31/16 Q1011
From batch tds/metars/production/2022/10/1/h15_m59_metars.cache.csv.gz
Observed at (about 15 hours ago)
Identifier HKGA
HKGA 011400Z 18017KT 9999 SCT029 32/16 Q1011
From batch tds/metars/production/2022/10/1/h14_m58_metars.cache.csv.gz
Observed at (about 16 hours ago)
Identifier HKGA
HKGA 011300Z 18615KT 9999 SCT029 32/16 Q1011
From batch tds/metars/production/2022/10/1/h13_m52_metars.cache.csv.gz
Observed at (about 17 hours ago)
Identifier HKGA
HKGA 011200Z 18018KT 9999 BKN029 32/17 Q1012
From batch tds/metars/production/2022/10/1/h12_m54_metars.cache.csv.gz
Observed at (about 18 hours ago)
Identifier HKGA
HKGA 011100Z 18017KT 9999 BKN028 32/17 Q1012
From batch tds/metars/production/2022/10/1/h11_m59_metars.cache.csv.gz
Observed at (about 19 hours ago)
Identifier HKGA
HKGA 011000Z 18018KT 9999 BKN027 32/17 Q1014
From batch tds/metars/production/2022/10/1/h10_m54_metars.cache.csv.gz
Observed at (about 20 hours ago)
Identifier HKGA
HKGA 010900Z 16017KT 9999 BKN026 30/17 Q1015
From batch tds/metars/production/2022/10/1/h09_m50_metars.cache.csv.gz
Observed at (about 21 hours ago)
Identifier HKGA
HKGA 010800Z 18012KT 9999 BKN025 29/18 Q1015
From batch tds/metars/production/2022/10/1/h08_m53_metars.cache.csv.gz
Observed at (about 22 hours ago)
Identifier HKGA
HKGA 010700Z 18012KT 9999 BKN024 28/18 Q1016
From batch tds/metars/production/2022/10/1/h07_m59_metars.cache.csv.gz
Observed at (about 23 hours ago)
Identifier HKGA
HKGA 010600Z 18013KT 9999 BKN023 26/19 Q1017
From batch tds/metars/production/2022/10/1/h06_m55_metars.cache.csv.gz
Observed at (1 day ago)
Identifier HKGA
HKGA 010500Z 18010KT 9999 BKN021 24/19 Q1016
From batch tds/metars/production/2022/10/1/h05_m53_metars.cache.csv.gz
Observed at (1 day ago)
Identifier HKGA
HKGA 301800Z 16012KT SKC 30/16 Q1013
From batch tds/metars/production/2022/9/30/h18_m54_metars.cache.csv.gz
Observed at (1 day ago)
Identifier HKGA
HKGA 301700Z 14008KT SKC 30/15 Q1012
From batch tds/metars/production/2022/9/30/h17_m49_metars.cache.csv.gz
Observed at (1 day ago)
Identifier HKGA
HKGA 301600Z 16012KT CAVOK 31/14 Q1011
From batch tds/metars/production/2022/9/30/h16_m52_metars.cache.csv.gz
Observed at (1 day ago)
Identifier HKGA
HKGA 301500Z 14012KT 9999 SCT029 32/14 Q1010
From batch tds/metars/production/2022/9/30/h15_m53_metars.cache.csv.gz
Observed at (1 day ago)
Identifier HKGA
HKGA 301400Z 18021KT 9999 SCT029 33/15 Q1010
From batch tds/metars/production/2022/9/30/h14_m56_metars.cache.csv.gz
Observed at (1 day ago)
Identifier HKGA
HKGA 301300Z 18010KT 9999 SCT029 33/15 Q1010
From batch tds/metars/production/2022/9/30/h13_m59_metars.cache.csv.gz
Observed at (1 day ago)
Identifier HKGA
HKGA 301200Z 16020KT 9999 SCT029 33/15 Q1011
From batch tds/metars/production/2022/9/30/h12_m59_metars.cache.csv.gz
Observed at (2 days ago)
Identifier HKGA
HKGA 301100Z 18021KT 9999 SCT027 33/15 Q1011
From batch tds/metars/production/2022/9/30/h11_m59_metars.cache.csv.gz
Observed at (2 days ago)
Identifier HKGA
HKGA 301000Z 14020KT 9999 SCT027 32/16 Q1012
From batch tds/metars/production/2022/9/30/h10_m58_metars.cache.csv.gz
Observed at (2 days ago)
Identifier HKGA
HKGA 300900Z 16010KT 9999 SCT026 31/16 Q1013
From batch tds/metars/production/2022/9/30/h09_m55_metars.cache.csv.gz
Observed at (2 days ago)
Identifier HKGA
HKGA 300800Z 18014KT 9999 SCT025 30/16 Q1015
From batch tds/metars/production/2022/9/30/h08_m59_metars.cache.csv.gz
Observed at (2 days ago)
Identifier HKGA
HKGA 300700Z 20012KT 9999 SCT024 28/17 Q1016
From batch tds/metars/production/2022/9/30/h07_m49_metars.cache.csv.gz
Observed at (2 days ago)
Identifier HKGA
HKGA 300600Z 18010KT 9999 BKN023 26/19 Q1016
From batch tds/metars/production/2022/9/30/h06_m59_metars.cache.csv.gz
Observed at (2 days ago)
Identifier HKGA
HKGA 300500Z 18006KT 9999 BKN022 25/20 Q1015
From batch tds/metars/production/2022/9/30/h05_m55_metars.cache.csv.gz
Observed at (2 days ago)
Identifier HKGA
HKGA 300400Z 18005KT 9999 BKN021 23/20 Q1015
From batch tds/metars/production/2022/9/30/h04_m50_metars.cache.csv.gz
Observed at (2 days ago)
Identifier HKGA
HKGA 291800Z 16020KT SKC 28/15 Q1012
From batch tds/metars/production/2022/9/29/h18_m59_metars.cache.csv.gz
Observed at (3 days ago)
Identifier HKGA
HKGA 291700Z 14020KT SKC 29/16 Q1012
From batch tds/metars/production/2022/9/29/h17_m59_metars.cache.csv.gz
Observed at (3 days ago)
Identifier HKGA
HKGA 291600Z 16016KT CAVOK 31/16 Q1011
From batch tds/metars/production/2022/9/29/h16_m59_metars.cache.csv.gz
Observed at (3 days ago)
Identifier HKGA
HKGA 291500Z 16014KT 9999 FEW029 32/15 Q1010
From batch tds/metars/production/2022/9/29/h15_m53_metars.cache.csv.gz
Observed at (3 days ago)
Identifier HKGA
HKGA 291400Z 18015KT 9999 SCT030 33/15 Q1010
From batch tds/metars/production/2022/9/29/h14_m53_metars.cache.csv.gz
Observed at (3 days ago)
Identifier HKGA
HKGA 291300Z 16014KT 9999 SCT030 34/14 Q1009
From batch tds/metars/production/2022/9/29/h13_m59_metars.cache.csv.gz
Observed at (3 days ago)
Identifier HKGA
HKGA 291200Z 18010KT 9999 SCT029 34/15 Q1010
From batch tds/metars/production/2022/9/29/h12_m58_metars.cache.csv.gz
Observed at (3 days ago)
Identifier HKGA
HKGA 291100Z 14020KT 9999 SCT028 33/15 Q1011
From batch tds/metars/production/2022/9/29/h11_m59_metars.cache.csv.gz
Observed at (3 days ago)
Identifier HKGA
HKGA 290900Z 18025KT 9999 SCT026 31/15 Q1013
From batch tds/metars/production/2022/9/29/h09_m59_metars.cache.csv.gz
Observed at (3 days ago)
Identifier HKGA
HKGA 290800Z 20016KT 9999 BKN025 30/17 Q1014
From batch tds/metars/production/2022/9/29/h08_m59_metars.cache.csv.gz
Observed at (3 days ago)
Identifier HKGA
HKGA 290700Z 16022KT 9999 BKN024 27/20 Q1015
From batch tds/metars/production/2022/9/29/h07_m57_metars.cache.csv.gz
Observed at (3 days ago)
Identifier HKGA
HKGA 290600Z 18020KT 9999 BKN023 26/19 Q1015
From batch tds/metars/production/2022/9/29/h06_m50_metars.cache.csv.gz
Observed at (3 days ago)
Identifier HKGA
HKGA 290500Z 18007KT 9999 BKN022 25/19 Q1015
From batch tds/metars/production/2022/9/29/h05_m51_metars.cache.csv.gz
Observed at (3 days ago)
Identifier HKGA
HKGA 290400Z 18006KT 9999 BKN021 23/19 Q1014
From batch tds/metars/production/2022/9/29/h04_m59_metars.cache.csv.gz
Observed at (3 days ago)
Identifier HKGA
HKGA 281800Z 14020KT SKC 28/16 Q1012
From batch tds/metars/production/2022/9/28/h18_m56_metars.cache.csv.gz
Observed at (4 days ago)
Identifier HKGA
HKGA 281600Z 14010KT CAVOK 31/15 Q1010
From batch tds/metars/production/2022/9/28/h16_m50_metars.cache.csv.gz
Observed at (4 days ago)
Identifier HKGA
HKGA 281500Z 14015KT 9999 FEW030 SCT290 33/14 Q1009
From batch tds/metars/production/2022/9/28/h15_m52_metars.cache.csv.gz
Observed at (4 days ago)
Identifier HKGA
HKGA 281400Z 18014KT 9999 FEW030 SCT290 34/13 Q1009
From batch tds/metars/production/2022/9/28/h14_m54_metars.cache.csv.gz
Observed at (4 days ago)
Identifier HKGA
talk